createdAt,value
2022-12-19T00:00:08.481Z,100.00
2022-12-19T00:02:42.385Z,100.00
2022-12-19T00:05:10.772Z,100.00
2022-12-19T00:07:37.863Z,100.00
2022-12-19T00:10:06.862Z,100.00
2022-12-19T00:12:33.945Z,100.00
2022-12-19T00:15:00.998Z,100.00
2022-12-19T00:17:29.397Z,100.00
2022-12-19T00:19:57.056Z,100.00
2022-12-19T00:22:24.400Z,100.00
2022-12-19T00:24:52.111Z,100.00
2022-12-19T00:27:19.251Z,100.00
2022-12-19T00:29:46.644Z,100.00
2022-12-19T00:32:14.322Z,100.00
2022-12-19T00:34:43.594Z,100.00
2022-12-19T00:37:11.896Z,100.00
2022-12-19T00:39:39.169Z,100.00
2022-12-19T00:42:06.296Z,100.00
2022-12-19T00:44:33.414Z,100.00
2022-12-19T00:47:00.686Z,100.00
2022-12-19T00:49:27.664Z,100.00
2022-12-19T00:51:57.408Z,100.00
2022-12-19T00:54:24.806Z,100.00
2022-12-19T00:56:51.781Z,100.00
2022-12-19T00:59:26.435Z,100.00
2022-12-19T01:01:57.414Z,100.00
2022-12-19T01:04:29.398Z,100.00
2022-12-19T01:07:02.344Z,100.00
2022-12-19T01:09:33.060Z,100.00
2022-12-19T01:12:19.193Z,100.00
2022-12-19T01:14:48.183Z,100.00
2022-12-19T01:17:15.642Z,100.00
2022-12-19T01:19:44.608Z,100.00
2022-12-19T01:22:14.956Z,100.00
2022-12-19T01:24:42.524Z,100.00
2022-12-19T01:27:09.609Z,100.00
2022-12-19T01:29:52.401Z,100.00
2022-12-19T01:32:22.279Z,100.00
2022-12-19T01:34:49.752Z,100.00
2022-12-19T01:37:17.122Z,100.00
2022-12-19T01:39:44.858Z,100.00
2022-12-19T01:42:24.258Z,100.00
2022-12-19T01:45:13.629Z,100.00
2022-12-19T01:47:53.511Z,100.00
2022-12-19T01:50:32.176Z,100.00
2022-12-19T01:53:00.246Z,100.00
2022-12-19T01:55:28.039Z,100.00
2022-12-19T01:57:57.011Z,100.00
2022-12-19T02:00:24.314Z,100.00
2022-12-19T02:03:02.547Z,100.00
2022-12-19T02:05:30.084Z,100.00
2022-12-19T02:07:59.001Z,100.00
2022-12-19T02:10:26.308Z,100.00
2022-12-19T02:12:53.314Z,100.00
2022-12-19T02:15:21.120Z,100.00
2022-12-19T02:18:06.906Z,100.00
2022-12-19T02:21:07.174Z,100.00
2022-12-19T02:24:06.245Z,100.00
2022-12-19T02:27:00.380Z,100.00
2022-12-19T02:30:04.621Z,100.00
2022-12-19T02:32:42.707Z,100.00
2022-12-19T02:35:22.847Z,100.00
2022-12-19T02:38:09.208Z,100.00
2022-12-19T02:40:45.089Z,100.00
2022-12-19T02:43:15.857Z,100.00
2022-12-19T02:45:44.937Z,100.00
2022-12-19T02:48:17.615Z,100.00
2022-12-19T02:50:50.243Z,100.00
2022-12-19T02:53:21.215Z,100.00
2022-12-19T02:56:30.124Z,100.00
2022-12-19T02:59:03.185Z,100.00
2022-12-19T03:01:42.276Z,100.00
2022-12-19T03:04:46.845Z,100.00
2022-12-19T03:07:37.342Z,100.00
2022-12-19T03:10:07.196Z,100.00
2022-12-19T03:12:40.543Z,100.00
2022-12-19T03:15:11.147Z,100.00
2022-12-19T03:17:38.857Z,100.00
2022-12-19T03:20:19.276Z,100.00
2022-12-19T03:22:47.043Z,100.00
2022-12-19T03:25:14.447Z,100.00
2022-12-19T03:27:42.093Z,100.00
2022-12-19T03:30:12.900Z,100.00
2022-12-19T03:32:44.017Z,100.00
2022-12-19T03:35:17.944Z,100.00
2022-12-19T03:37:49.460Z,100.00
2022-12-19T03:40:23.608Z,100.00
2022-12-19T03:43:11.358Z,100.00
2022-12-19T03:45:49.871Z,100.00
2022-12-19T03:48:24.077Z,100.00
2022-12-19T03:51:05.678Z,100.00
2022-12-19T03:53:32.611Z,100.00
2022-12-19T03:56:11.421Z,100.00
2022-12-19T03:58:42.413Z,100.00
2022-12-19T04:01:09.900Z,100.00
2022-12-19T04:03:37.430Z,100.00
2022-12-19T04:06:06.192Z,100.00
2022-12-19T04:08:35.515Z,100.00
2022-12-19T04:11:10.012Z,100.00
2022-12-19T04:13:39.971Z,100.00
2022-12-19T04:16:22.174Z,100.00
2022-12-19T04:18:55.855Z,100.00
2022-12-19T04:21:36.736Z,100.00
2022-12-19T04:24:15.873Z,100.00
2022-12-19T04:26:48.826Z,100.00
2022-12-19T04:29:16.831Z,100.00
2022-12-19T04:31:44.803Z,100.00
2022-12-19T04:34:11.875Z,100.00
2022-12-19T04:36:38.928Z,100.00
2022-12-19T04:39:06.284Z,100.00
2022-12-19T04:41:33.334Z,100.00
2022-12-19T04:44:00.404Z,100.00
2022-12-19T04:46:27.851Z,100.00
2022-12-19T04:48:54.888Z,100.00
2022-12-19T04:51:21.997Z,100.00
2022-12-19T04:53:49.318Z,100.00
2022-12-19T04:56:16.532Z,100.00
2022-12-19T04:58:43.741Z,100.00
2022-12-19T05:01:13.999Z,100.00
2022-12-19T05:03:41.262Z,100.00
2022-12-19T05:06:10.913Z,100.00
2022-12-19T05:08:39.989Z,100.00
2022-12-19T05:11:08.231Z,100.00
2022-12-19T05:13:35.337Z,100.00
2022-12-19T05:16:04.752Z,100.00
2022-12-19T05:18:32.285Z,100.00
2022-12-19T05:20:59.439Z,100.00
2022-12-19T05:23:27.148Z,100.00
2022-12-19T05:25:57.806Z,100.00
2022-12-19T05:28:25.033Z,100.00
2022-12-19T05:30:52.783Z,100.00
2022-12-19T05:33:20.122Z,100.00
2022-12-19T05:35:47.967Z,100.00
2022-12-19T05:38:15.360Z,100.00
2022-12-19T05:40:43.853Z,100.00
2022-12-19T05:43:10.942Z,100.00
2022-12-19T05:45:39.898Z,100.00
2022-12-19T05:48:09.433Z,100.00
2022-12-19T05:50:36.725Z,100.00
2022-12-19T05:53:09.593Z,100.00
2022-12-19T05:55:36.710Z,100.00
2022-12-19T05:58:03.747Z,100.00
2022-12-19T06:00:31.156Z,100.00
2022-12-19T06:02:58.618Z,100.00
2022-12-19T06:05:25.785Z,100.00
2022-12-19T06:07:52.939Z,100.00
2022-12-19T06:10:20.342Z,100.00
2022-12-19T06:12:47.387Z,100.00
2022-12-19T06:15:14.522Z,100.00
2022-12-19T06:17:41.939Z,100.00
2022-12-19T06:20:09.651Z,100.00
2022-12-19T06:22:36.739Z,100.00
2022-12-19T06:25:04.495Z,100.00
2022-12-19T06:27:31.685Z,100.00
2022-12-19T06:29:58.733Z,100.00
2022-12-19T06:32:26.587Z,100.00
2022-12-19T06:35:04.002Z,100.00
2022-12-19T06:37:31.922Z,100.00
2022-12-19T06:39:59.021Z,100.00
2022-12-19T06:42:26.532Z,100.00
2022-12-19T06:44:56.340Z,100.00
2022-12-19T06:47:24.920Z,100.00
2022-12-19T06:49:52.051Z,100.00
2022-12-19T06:52:19.486Z,100.00
2022-12-19T06:54:46.889Z,100.00
2022-12-19T06:57:14.000Z,100.00
2022-12-19T06:59:41.427Z,100.00
2022-12-19T07:02:27.523Z,100.00
2022-12-19T07:05:02.867Z,100.00
2022-12-19T07:07:30.221Z,100.00
2022-12-19T07:09:57.739Z,100.00
2022-12-19T07:12:24.890Z,100.00
2022-12-19T07:14:53.700Z,100.00
2022-12-19T07:17:23.827Z,100.00
2022-12-19T07:19:51.448Z,100.00
2022-12-19T07:22:18.652Z,100.00
2022-12-19T07:24:46.302Z,100.00
2022-12-19T07:27:13.441Z,100.00
2022-12-19T07:29:40.517Z,100.00
2022-12-19T07:32:07.895Z,100.00
2022-12-19T07:34:35.036Z,100.00
2022-12-19T07:37:02.205Z,100.00
2022-12-19T07:39:29.620Z,100.00
2022-12-19T07:41:56.702Z,100.00
2022-12-19T07:44:26.880Z,100.00
2022-12-19T07:46:54.316Z,100.00
2022-12-19T07:49:22.926Z,100.00
2022-12-19T07:51:50.214Z,100.00
2022-12-19T07:54:17.589Z,100.00
2022-12-19T07:56:44.724Z,100.00
2022-12-19T07:59:13.102Z,100.00
2022-12-19T08:01:40.702Z,100.00
2022-12-19T08:04:08.590Z,100.00
2022-12-19T08:06:40.739Z,100.00
2022-12-19T08:09:09.019Z,100.00
2022-12-19T08:11:36.081Z,100.00
2022-12-19T08:14:03.639Z,100.00
2022-12-19T08:16:31.202Z,100.00
2022-12-19T08:18:58.303Z,99.52
2022-12-19T08:21:25.613Z,100.00
2022-12-19T08:23:53.394Z,99.35
2022-12-19T08:26:25.264Z,99.16
2022-12-19T08:28:57.725Z,99.62
2022-12-19T08:31:26.871Z,98.40
2022-12-19T08:33:56.000Z,98.49
2022-12-19T08:36:24.037Z,97.34
2022-12-19T08:38:52.508Z,94.57
2022-12-19T08:41:20.048Z,94.17
2022-12-19T08:43:51.718Z,92.33
2022-12-19T08:46:20.163Z,87.84
2022-12-19T08:48:47.670Z,87.76
2022-12-19T08:51:15.522Z,89.05
2022-12-19T08:53:44.253Z,89.62
2022-12-19T08:56:13.428Z,90.70
2022-12-19T08:58:40.915Z,90.07
2022-12-19T09:01:13.983Z,89.39
2022-12-19T09:05:01.628Z,89.04
2022-12-19T09:06:29.261Z,89.76
2022-12-19T09:09:00.051Z,89.81
2022-12-19T09:11:27.661Z,89.04
2022-12-19T09:13:57.359Z,88.50
2022-12-19T09:16:27.417Z,88.48
2022-12-19T09:18:58.560Z,88.21
2022-12-19T09:21:31.560Z,88.43
2022-12-19T09:24:06.970Z,89.65
2022-12-19T09:26:35.923Z,87.12
2022-12-19T09:29:06.820Z,87.61
2022-12-19T09:31:47.645Z,86.49
2022-12-19T09:34:24.937Z,87.47
2022-12-19T09:37:00.988Z,88.10
2022-12-19T09:39:28.127Z,87.67
2022-12-19T09:42:03.518Z,87.71
2022-12-19T09:44:52.505Z,87.94
2022-12-19T09:47:27.489Z,87.56
2022-12-19T09:49:55.381Z,87.45
2022-12-19T09:52:43.715Z,87.86
2022-12-19T09:55:33.570Z,88.36
2022-12-19T09:58:12.837Z,87.36
2022-12-19T10:00:56.796Z,87.81
2022-12-19T10:03:51.284Z,87.36
2022-12-19T10:07:19.813Z,87.76
2022-12-19T10:10:57.305Z,86.74
2022-12-19T10:12:38.647Z,87.25
2022-12-19T10:15:18.010Z,86.91
2022-12-19T10:17:58.100Z,84.86
2022-12-19T10:20:42.228Z,84.99
2022-12-19T10:23:31.152Z,85.39
2022-12-19T10:26:18.588Z,84.47
2022-12-19T10:28:51.833Z,83.79
2022-12-19T10:31:33.856Z,84.53
2022-12-19T10:34:24.687Z,83.59
2022-12-19T10:37:27.106Z,84.01
2022-12-19T10:40:02.195Z,84.12
2022-12-19T10:42:53.534Z,84.17
2022-12-19T10:45:22.933Z,83.51
2022-12-19T10:47:55.984Z,83.00
2022-12-19T10:50:26.796Z,83.02
2022-12-19T10:53:04.197Z,83.25
2022-12-19T10:56:06.833Z,82.48
2022-12-19T10:58:38.144Z,82.11
2022-12-19T11:01:17.237Z,82.61
2022-12-19T11:03:51.479Z,82.66
2022-12-19T11:06:49.130Z,81.15
2022-12-19T11:09:29.811Z,81.55
2022-12-19T11:16:44.083Z,82.13
2022-12-19T11:20:27.389Z,81.64
2022-12-19T11:23:23.391Z,82.06
2022-12-19T11:29:26.221Z,82.52
2022-12-19T11:29:33.019Z,81.67
2022-12-19T11:29:44.575Z,83.01
2022-12-19T11:32:44.174Z,83.09
2022-12-19T11:35:15.441Z,82.08
2022-12-19T11:37:58.438Z,83.20
2022-12-19T11:40:43.137Z,84.20
2022-12-19T11:43:45.359Z,83.67
2022-12-19T11:46:39.826Z,83.72
2022-12-19T11:49:13.910Z,82.92
2022-12-19T11:51:52.610Z,82.77
2022-12-19T11:54:32.732Z,83.56
2022-12-19T11:56:59.893Z,83.68
2022-12-19T11:59:36.747Z,83.51
2022-12-19T12:02:52.096Z,83.67
2022-12-19T12:05:41.903Z,83.38
2022-12-19T12:10:33.319Z,83.53
2022-12-19T12:20:18.492Z,83.07
2022-12-19T12:22:43.758Z,82.96
2022-12-19T12:30:42.513Z,82.24
2022-12-19T12:31:00.803Z,82.41
2022-12-19T12:31:49.437Z,83.39
2022-12-19T12:31:58.825Z,82.38
2022-12-19T12:32:02.520Z,82.58
2022-12-19T12:35:42.377Z,83.27
2022-12-19T12:37:52.445Z,84.17
2022-12-19T12:38:26.652Z,84.64
2022-12-19T12:41:13.255Z,84.33
2022-12-19T12:44:00.630Z,84.58
2022-12-19T12:46:37.403Z,85.09
2022-12-19T12:49:24.103Z,85.49
2022-12-19T12:51:55.095Z,85.94
2022-12-19T12:54:29.741Z,85.32
2022-12-19T12:56:57.720Z,85.61
2022-12-19T12:59:31.693Z,87.15
2022-12-19T13:02:13.563Z,87.22
2022-12-19T13:04:56.762Z,87.15
2022-12-19T13:07:50.385Z,87.01
2022-12-19T13:10:31.666Z,86.62
2022-12-19T13:13:15.801Z,86.50
2022-12-19T13:15:46.097Z,86.44
2022-12-19T13:18:32.753Z,86.50
2022-12-19T13:21:02.157Z,85.75
2022-12-19T13:23:29.376Z,85.86
2022-12-19T13:25:56.842Z,85.74
2022-12-19T13:28:23.887Z,86.19
2022-12-19T13:31:21.036Z,85.95
2022-12-19T13:33:53.875Z,86.39
2022-12-19T13:39:50.481Z,87.13
2022-12-19T13:39:54.622Z,87.99
2022-12-19T13:42:55.138Z,87.72
2022-12-19T13:45:41.424Z,88.22
2022-12-19T13:48:16.515Z,88.53
2022-12-19T13:50:47.753Z,88.67
2022-12-19T13:53:27.794Z,88.95
2022-12-19T13:55:59.559Z,89.05
2022-12-19T13:58:47.504Z,89.09
2022-12-19T14:01:21.457Z,88.78
2022-12-19T14:03:51.576Z,88.74
2022-12-19T14:06:26.338Z,89.54
2022-12-19T14:09:37.452Z,90.01
2022-12-19T14:13:41.988Z,90.06
2022-12-19T14:15:13.178Z,90.75
2022-12-19T14:17:40.976Z,90.97
2022-12-19T14:21:19.439Z,91.17
2022-12-19T14:23:10.936Z,91.08
2022-12-19T14:28:19.134Z,91.69
2022-12-19T14:28:48.953Z,92.18
2022-12-19T14:31:20.648Z,92.89
2022-12-19T14:34:18.410Z,92.95
2022-12-19T14:36:40.861Z,93.36
2022-12-19T14:39:27.195Z,93.27
2022-12-19T14:42:31.585Z,93.28
2022-12-19T14:52:34.558Z,93.06
2022-12-19T14:54:00.856Z,93.07
2022-12-19T14:54:40.197Z,93.44
2022-12-19T14:55:58.911Z,94.00
2022-12-19T14:57:28.958Z,94.90
2022-12-19T15:01:07.186Z,95.71
2022-12-19T15:03:31.137Z,96.14
2022-12-19T15:06:49.281Z,96.08
2022-12-19T15:11:00.304Z,96.04
2022-12-19T15:14:47.570Z,96.59
2022-12-19T15:15:22.274Z,96.41
2022-12-19T15:17:52.495Z,96.75
2022-12-19T15:20:20.792Z,97.03
2022-12-19T15:22:48.444Z,97.08
2022-12-19T15:25:44.151Z,97.66
2022-12-19T15:28:18.412Z,97.17
2022-12-19T15:30:56.561Z,97.78
2022-12-19T15:33:24.015Z,97.61
2022-12-19T15:35:51.498Z,97.77
2022-12-19T15:38:18.665Z,97.52
2022-12-19T15:40:45.851Z,98.06
2022-12-19T15:43:53.190Z,98.51
2022-12-19T15:46:05.069Z,98.23
2022-12-19T15:48:37.301Z,97.48
2022-12-19T15:51:04.418Z,97.98
2022-12-19T15:53:40.789Z,98.62
2022-12-19T15:56:27.355Z,98.65
2022-12-19T15:58:57.156Z,98.78
2022-12-19T16:01:26.531Z,98.91
2022-12-19T16:03:56.096Z,98.75
2022-12-19T16:06:23.440Z,98.93
2022-12-19T16:08:50.544Z,99.10
2022-12-19T16:11:23.749Z,99.10
2022-12-19T16:13:56.612Z,99.29
2022-12-19T16:16:23.943Z,99.72
2022-12-19T16:18:50.991Z,99.30
2022-12-19T16:21:33.531Z,99.20
2022-12-19T16:24:01.704Z,100.00
2022-12-19T16:26:33.679Z,99.79
2022-12-19T16:29:01.823Z,99.25
2022-12-19T16:31:29.335Z,99.49
2022-12-19T16:33:56.582Z,98.84
2022-12-19T16:36:23.699Z,98.70
2022-12-19T16:38:51.073Z,98.26
2022-12-19T16:41:21.599Z,98.71
2022-12-19T16:43:49.347Z,98.75
2022-12-19T16:46:30.892Z,98.46
2022-12-19T16:48:58.462Z,98.37
2022-12-19T16:51:27.829Z,98.33
2022-12-19T16:53:58.869Z,97.80
2022-12-19T16:56:39.156Z,98.55
2022-12-19T16:59:14.227Z,98.40
2022-12-19T17:01:44.301Z,98.25
2022-12-19T17:04:21.628Z,98.77
2022-12-19T17:06:50.621Z,97.95
2022-12-19T17:09:20.199Z,97.37
2022-12-19T17:11:50.451Z,97.25
2022-12-19T17:14:20.815Z,96.89
2022-12-19T17:16:48.863Z,96.68
2022-12-19T17:19:23.701Z,97.06
2022-12-19T17:21:51.437Z,96.21
2022-12-19T17:24:18.959Z,96.29
2022-12-19T17:26:46.557Z,97.08
2022-12-19T17:29:14.088Z,96.22
2022-12-19T17:31:42.274Z,96.03
2022-12-19T17:34:21.598Z,95.48
2022-12-19T17:36:49.050Z,95.07
2022-12-19T17:39:22.754Z,95.15
2022-12-19T17:41:51.477Z,95.10
2022-12-19T17:44:18.738Z,95.35
2022-12-19T17:46:47.470Z,95.93
2022-12-19T17:49:24.716Z,95.59
2022-12-19T17:51:52.370Z,95.90
2022-12-19T17:54:21.421Z,95.77
2022-12-19T17:56:49.034Z,95.36
2022-12-19T17:59:16.729Z,95.33
2022-12-19T18:01:46.379Z,95.75
2022-12-19T18:04:16.832Z,96.16
2022-12-19T18:06:44.736Z,95.97
2022-12-19T18:09:25.228Z,94.55
2022-12-19T18:11:53.047Z,94.17
2022-12-19T18:14:20.123Z,94.30
2022-12-19T18:16:50.278Z,94.91
2022-12-19T18:19:23.492Z,95.56
2022-12-19T18:21:50.663Z,94.92
2022-12-19T18:24:18.030Z,95.25
2022-12-19T18:26:45.317Z,94.62
2022-12-19T18:29:12.789Z,94.96
2022-12-19T18:31:48.131Z,94.97
2022-12-19T18:34:24.107Z,95.07
2022-12-19T18:36:53.026Z,95.42
2022-12-19T18:39:25.728Z,95.39
2022-12-19T18:41:53.949Z,94.65
2022-12-19T18:44:23.087Z,95.19
2022-12-19T18:46:51.648Z,95.40
2022-12-19T18:49:19.547Z,95.53
2022-12-19T18:51:47.108Z,94.74
2022-12-19T18:54:17.202Z,94.88
2022-12-19T18:56:45.367Z,94.57
2022-12-19T18:59:12.674Z,95.33
2022-12-19T19:01:43.937Z,95.03
2022-12-19T19:04:13.284Z,95.49
2022-12-19T19:06:48.335Z,95.56
2022-12-19T19:09:18.513Z,95.83
2022-12-19T19:11:47.293Z,95.55
2022-12-19T19:14:14.686Z,95.92
2022-12-19T19:16:42.142Z,95.92
2022-12-19T19:19:14.514Z,96.01
2022-12-19T19:21:42.667Z,96.60
2022-12-19T19:24:17.529Z,96.08
2022-12-19T19:26:44.848Z,96.92
2022-12-19T19:29:13.678Z,97.26
2022-12-19T19:31:45.742Z,97.05
2022-12-19T19:34:21.833Z,97.72
2022-12-19T19:36:53.535Z,96.73
2022-12-19T19:39:22.906Z,97.04
2022-12-19T19:41:50.280Z,97.44
2022-12-19T19:44:17.277Z,96.49
2022-12-19T19:46:44.935Z,96.39
2022-12-19T19:49:12.322Z,96.37
2022-12-19T19:51:39.518Z,96.27
2022-12-19T19:54:06.944Z,96.58
2022-12-19T19:56:34.049Z,97.04
2022-12-19T19:59:01.065Z,96.97
2022-12-19T20:01:28.569Z,97.13
2022-12-19T20:03:56.181Z,97.29
2022-12-19T20:06:26.182Z,97.78
2022-12-19T20:08:53.176Z,98.03
2022-12-19T20:11:20.953Z,98.12
2022-12-19T20:13:48.158Z,98.75
2022-12-19T20:16:17.408Z,98.01
2022-12-19T20:18:52.817Z,98.39
2022-12-19T20:21:20.842Z,99.04
2022-12-19T20:23:48.450Z,99.02
2022-12-19T20:26:16.769Z,98.69
2022-12-19T20:28:49.069Z,99.31
2022-12-19T20:31:23.500Z,98.98
2022-12-19T20:33:53.034Z,99.09
2022-12-19T20:36:22.109Z,99.58
2022-12-19T20:38:49.555Z,98.89
2022-12-19T20:41:17.395Z,99.26
2022-12-19T20:43:45.221Z,99.64
2022-12-19T20:46:15.859Z,99.97
2022-12-19T20:48:43.741Z,99.86
2022-12-19T20:51:12.294Z,98.94
2022-12-19T20:53:41.512Z,99.64
2022-12-19T20:56:15.247Z,99.36
2022-12-19T20:58:43.220Z,100.00
2022-12-19T21:01:16.370Z,100.00
2022-12-19T21:03:45.284Z,99.77
2022-12-19T21:06:15.881Z,99.63
2022-12-19T21:08:43.091Z,100.00
2022-12-19T21:11:11.343Z,100.00
2022-12-19T21:13:39.489Z,99.64
2022-12-19T21:16:08.990Z,99.92
2022-12-19T21:18:38.270Z,100.00
2022-12-19T21:21:06.665Z,99.63
2022-12-19T21:23:34.026Z,99.54
2022-12-19T21:26:02.835Z,100.00
2022-12-19T21:28:30.669Z,100.00
2022-12-19T21:31:08.274Z,100.00
2022-12-19T21:33:35.632Z,100.00
2022-12-19T21:36:14.471Z,100.00
2022-12-19T21:38:42.311Z,100.00
2022-12-19T21:41:10.654Z,100.00
2022-12-19T21:43:38.153Z,100.00
2022-12-19T21:46:11.194Z,100.00
2022-12-19T21:48:40.528Z,100.00
2022-12-19T21:51:09.816Z,100.00
2022-12-19T21:53:38.540Z,100.00
2022-12-19T21:56:26.699Z,100.00
2022-12-19T21:59:00.672Z,100.00
2022-12-19T22:01:29.330Z,100.00
2022-12-19T22:04:06.355Z,100.00
2022-12-19T22:06:35.546Z,100.00
2022-12-19T22:09:04.355Z,100.00
2022-12-19T22:11:31.510Z,100.00
2022-12-19T22:14:02.357Z,100.00
2022-12-19T22:16:29.825Z,100.00
2022-12-19T22:18:57.377Z,100.00
2022-12-19T22:21:25.564Z,100.00
2022-12-19T22:23:57.285Z,100.00
2022-12-19T22:26:26.016Z,100.00
2022-12-19T22:28:55.682Z,100.00
2022-12-19T22:31:25.195Z,100.00
2022-12-19T22:33:55.155Z,100.00
2022-12-19T22:36:28.086Z,100.00
2022-12-19T22:38:57.511Z,100.00
2022-12-19T22:41:25.829Z,100.00
2022-12-19T22:43:53.946Z,100.00
2022-12-19T22:46:27.298Z,100.00
2022-12-19T22:49:00.523Z,100.00
2022-12-19T22:51:28.906Z,100.00
2022-12-19T22:53:57.197Z,100.00
2022-12-19T22:56:27.366Z,100.00
2022-12-19T22:58:58.438Z,100.00
2022-12-19T23:01:27.163Z,100.00
2022-12-19T23:03:56.611Z,100.00
2022-12-19T23:06:25.624Z,100.00
2022-12-19T23:08:53.682Z,100.00
2022-12-19T23:11:27.693Z,100.00
2022-12-19T23:13:55.051Z,100.00
2022-12-19T23:16:22.715Z,100.00
2022-12-19T23:18:49.884Z,100.00
2022-12-19T23:21:19.849Z,100.00
2022-12-19T23:23:49.926Z,100.00
2022-12-19T23:26:21.733Z,100.00
2022-12-19T23:28:57.423Z,100.00
2022-12-19T23:31:27.207Z,100.00
2022-12-19T23:33:55.383Z,100.00
2022-12-19T23:36:44.958Z,100.00
2022-12-19T23:39:11.601Z,100.00
2022-12-19T23:41:39.767Z,100.00
2022-12-19T23:44:08.129Z,100.00
2022-12-19T23:46:35.876Z,100.00
2022-12-19T23:49:03.782Z,100.00
2022-12-19T23:51:30.936Z,100.00
2022-12-19T23:53:58.508Z,100.00
2022-12-19T23:56:28.819Z,100.00
2022-12-19T23:58:56.629Z,100.00
